createdAt,value
2018-12-21T00:05:16.151Z,99.993896
2018-12-21T00:10:38.836Z,99.993896
2018-12-21T00:16:01.711Z,99.993896
2018-12-21T00:21:24.508Z,99.993896
2018-12-21T00:26:47.184Z,99.993896
2018-12-21T00:32:09.962Z,99.993896
2018-12-21T00:37:32.638Z,99.993896
2018-12-21T00:42:55.420Z,99.993896
2018-12-21T00:48:18.080Z,99.993896
2018-12-21T00:53:50.744Z,99.993896
2018-12-21T00:59:13.569Z,99.993896
2018-12-21T01:04:36.276Z,99.993896
2018-12-21T01:09:58.965Z,99.993896
2018-12-21T01:15:21.842Z,99.993896
2018-12-21T01:20:44.572Z,99.993896
2018-12-21T01:26:07.474Z,99.993896
2018-12-21T01:31:30.265Z,99.993896
2018-12-21T01:36:53.031Z,99.993896
2018-12-21T01:42:16.765Z,99.993896
2018-12-21T01:47:40.309Z,99.993896
2018-12-21T01:53:03.143Z,99.993896
2018-12-21T01:58:36.060Z,99.993896
2018-12-21T02:03:58.969Z,99.993896
2018-12-21T02:09:21.700Z,99.993896
2018-12-21T02:14:44.430Z,99.993896
2018-12-21T02:20:07.081Z,99.993896
2018-12-21T02:25:29.820Z,99.993896
2018-12-21T02:30:52.539Z,99.993896
2018-12-21T02:36:15.381Z,99.993896
2018-12-21T02:41:39.060Z,99.993896
2018-12-21T02:47:01.854Z,99.993896
2018-12-21T02:52:25.624Z,99.993896
2018-12-21T02:57:49.053Z,99.993896
2018-12-21T03:03:12.667Z,99.993896
2018-12-21T03:08:35.343Z,99.993896
2018-12-21T03:13:58.092Z,99.993896
2018-12-21T03:19:21.894Z,99.993896
2018-12-21T03:24:45.178Z,99.993896
2018-12-21T03:30:17.716Z,99.993896
2018-12-21T03:35:40.716Z,99.993896
2018-12-21T03:41:03.334Z,99.993896
2018-12-21T03:46:25.944Z,99.993896
2018-12-21T03:51:48.582Z,99.993896
2018-12-21T03:57:11.285Z,99.993896
2018-12-21T04:02:33.934Z,99.993896
2018-12-21T04:07:56.588Z,99.993896
2018-12-21T04:13:19.280Z,99.993896
2018-12-21T04:18:41.955Z,99.993896
2018-12-21T04:24:05.745Z,99.993896
2018-12-21T04:29:28.481Z,99.993896
2018-12-21T04:34:51.212Z,99.993896
2018-12-21T04:40:13.909Z,99.993896
2018-12-21T04:45:37.340Z,99.993896
2018-12-21T04:51:00.047Z,99.993896
2018-12-21T04:56:23.063Z,99.993896
2018-12-21T05:01:48.947Z,99.993896
2018-12-21T05:07:12.864Z,99.993896
2018-12-21T05:12:35.007Z,99.993896
2018-12-21T05:17:57.921Z,99.993896
2018-12-21T05:23:20.588Z,99.664307
2018-12-21T05:28:44.452Z,99.249268
2018-12-21T05:34:07.175Z,99.102783
2018-12-21T05:39:30.892Z,99.414062
2018-12-21T05:44:53.727Z,99.206543
2018-12-21T05:50:16.580Z,99.310303
2018-12-21T05:55:39.247Z,99.621582
2018-12-21T06:01:02.088Z,99.206543
2018-12-21T06:06:25.761Z,99.572754
2018-12-21T06:11:48.410Z,99.621582
2018-12-21T06:17:11.180Z,99.676514
2018-12-21T06:22:33.934Z,99.261475
2018-12-21T06:27:56.624Z,99.993896
2018-12-21T06:33:19.577Z,99.993896
2018-12-21T06:38:42.540Z,99.993896
2018-12-21T06:44:05.606Z,99.993896
2018-12-21T06:49:28.659Z,99.993896
2018-12-21T06:54:51.761Z,99.993896
2018-12-21T07:00:14.582Z,99.993896
2018-12-21T07:05:37.242Z,99.993896
2018-12-21T07:11:00.001Z,99.993896
2018-12-21T07:16:22.701Z,99.993896
2018-12-21T07:21:45.563Z,99.993896
2018-12-21T07:27:08.187Z,99.993896
2018-12-21T07:32:30.994Z,99.993896
2018-12-21T07:37:53.731Z,99.993896
2018-12-21T07:43:16.477Z,99.993896
2018-12-21T07:48:39.204Z,99.993896
2018-12-21T07:54:02.021Z,99.993896
2018-12-21T07:59:33.659Z,99.993896
2018-12-21T08:04:56.461Z,99.993896
2018-12-21T08:10:19.644Z,99.993896
2018-12-21T08:16:15.916Z,99.993896
2018-12-21T08:21:47.936Z,99.993896
2018-12-21T08:27:10.892Z,99.993896
2018-12-21T08:32:43.868Z,99.993896
2018-12-21T08:38:17.036Z,99.993896
2018-12-21T08:43:49.051Z,99.993896
2018-12-21T08:49:21.664Z,99.993896
2018-12-21T08:54:54.655Z,99.993896
2018-12-21T09:00:26.280Z,99.993896
2018-12-21T09:05:59.109Z,99.993896
2018-12-21T09:11:33.605Z,99.993896
2018-12-21T09:17:06.911Z,99.993896
2018-12-21T09:29:05.492Z,99.993896
2018-12-21T09:34:30.196Z,99.993896
2018-12-21T09:39:55.819Z,99.993896
2018-12-21T09:45:57.180Z,99.993896
2018-12-21T09:58:18.335Z,99.993896
2018-12-21T10:03:53.326Z,99.993896
2018-12-21T10:09:16.552Z,99.993896
2018-12-21T10:14:49.194Z,99.993896
2018-12-21T10:20:44.642Z,99.993896
2018-12-21T10:26:37.830Z,99.993896
2018-12-21T10:32:12.039Z,99.993896
2018-12-21T10:37:48.013Z,99.993896
2018-12-21T10:43:20.987Z,99.993896
2018-12-21T10:48:53.811Z,99.993896
2018-12-21T10:54:28.471Z,99.993896
2018-12-21T11:00:00.159Z,99.993896
2018-12-21T11:05:33.606Z,99.993896
2018-12-21T11:11:13.762Z,99.993896
2018-12-21T11:16:56.855Z,99.993896
2018-12-21T11:22:55.261Z,99.993896
2018-12-21T11:28:44.539Z,99.993896
2018-12-21T11:34:20.695Z,99.993896
2018-12-21T11:39:53.226Z,99.993896
2018-12-21T11:45:29.308Z,99.993896
2018-12-21T11:51:02.187Z,99.993896
2018-12-21T11:56:38.680Z,99.993896
2018-12-21T12:02:19.399Z,99.993896
2018-12-21T12:08:11.735Z,99.993896
2018-12-21T12:13:44.843Z,99.993896
2018-12-21T12:19:18.469Z,99.993896
2018-12-21T12:24:41.949Z,99.993896
2018-12-21T12:30:34.629Z,99.993896
2018-12-21T12:35:57.874Z,99.993896
2018-12-21T12:41:57.454Z,99.993896
2018-12-21T12:47:33.260Z,99.993896
2018-12-21T12:53:07.272Z,99.993896
2018-12-21T12:58:39.594Z,99.993896
2018-12-21T13:04:12.470Z,99.993896
2018-12-21T13:09:47.150Z,99.993896
2018-12-21T13:15:09.706Z,99.993896
2018-12-21T13:20:32.976Z,99.993896
2018-12-21T13:32:56.503Z,99.993896
2018-12-21T13:38:20.025Z,99.993896
2018-12-21T13:43:53.300Z,99.993896
2018-12-21T13:49:25.943Z,99.993896
2018-12-21T13:54:59.074Z,99.993896
2018-12-21T14:00:33.530Z,99.993896
2018-12-21T14:06:31.896Z,99.993896
2018-12-21T14:12:05.395Z,99.993896
2018-12-21T14:17:42.492Z,99.993896
2018-12-21T14:23:17.854Z,99.993896
2018-12-21T14:35:16.000Z,99.993896
2018-12-21T14:40:48.400Z,99.786377
2018-12-21T14:46:21.088Z,98.00415
2018-12-21T14:51:53.602Z,98.205566
2018-12-21T14:57:16.422Z,98.00415
2018-12-21T15:02:49.300Z,96.984863
2018-12-21T15:08:21.337Z,95.043945
2018-12-21T15:13:44.434Z,94.836426
2018-12-21T15:19:07.516Z,94.73877
2018-12-21T15:24:30.180Z,94.268799
2018-12-21T15:29:53.021Z,94.171143
2018-12-21T15:35:25.812Z,95.440674
2018-12-21T15:40:59.387Z,94.824219
2018-12-21T15:46:32.915Z,93.597412
2018-12-21T15:51:55.825Z,91.821289
2018-12-21T15:57:28.364Z,93.395996
2018-12-21T16:03:01.899Z,93.237305
2018-12-21T16:08:35.372Z,93.133545
2018-12-21T16:14:37.347Z,93.133545
2018-12-21T16:20:12.385Z,93.029785
2018-12-21T16:26:08.156Z,93.786621
2018-12-21T16:31:44.459Z,95.367432
2018-12-21T16:37:18.575Z,94.958496
2018-12-21T16:42:51.880Z,92.297363
2018-12-21T16:48:26.448Z,88.262939
2018-12-21T16:53:49.315Z,87.139893
2018-12-21T16:59:12.255Z,85.71167
2018-12-21T17:04:36.325Z,85.644531
2018-12-21T17:09:59.062Z,86.669922
2018-12-21T17:15:22.728Z,86.810303
2018-12-21T17:20:45.512Z,86.096191
2018-12-21T17:26:08.158Z,84.521484
2018-12-21T17:31:32.759Z,85.27832
2018-12-21T17:36:55.557Z,88.079834
2018-12-21T17:42:32.161Z,91.912842
2018-12-21T17:48:33.614Z,95.281982
2018-12-21T17:54:06.755Z,97.583008
2018-12-21T17:59:39.489Z,98.345947
2018-12-21T18:05:12.896Z,97.729492
2018-12-21T18:10:47.030Z,98.449707
2018-12-21T18:16:20.799Z,97.833252
2018-12-21T18:21:43.706Z,99.420166
2018-12-21T18:27:06.755Z,99.993896
2018-12-21T18:32:29.462Z,99.993896
2018-12-21T18:37:52.295Z,99.993896
2018-12-21T18:43:15.275Z,99.993896
2018-12-21T18:48:47.437Z,99.993896
2018-12-21T18:54:18.513Z,99.993896
2018-12-21T18:59:41.742Z,99.993896
2018-12-21T19:05:04.456Z,99.475098
2018-12-21T19:10:36.795Z,99.273682
2018-12-21T19:15:59.694Z,99.932861
2018-12-21T19:21:22.400Z,99.169922
2018-12-21T19:26:45.283Z,98.144531
2018-12-21T19:32:09.701Z,97.216797
2018-12-21T19:37:32.374Z,96.350098
2018-12-21T19:42:55.709Z,96.044922
2018-12-21T19:48:28.561Z,95.837402
2018-12-21T19:54:02.729Z,95.324707
2018-12-21T20:00:03.070Z,93.640137
2018-12-21T20:05:35.496Z,92.102051
2018-12-21T20:11:08.613Z,90.930176
2018-12-21T20:16:31.781Z,90.41748
2018-12-21T20:22:03.449Z,92.718506
2018-12-21T20:27:36.206Z,91.796875
2018-12-21T20:32:59.003Z,91.589355
2018-12-21T20:38:21.821Z,93.743896
2018-12-21T20:43:54.636Z,95.019531
2018-12-21T20:49:17.399Z,93.994141
2018-12-21T20:54:48.963Z,94.299316
2018-12-21T21:00:21.379Z,94.0979
2018-12-21T21:05:44.446Z,93.273926
2018-12-21T21:11:07.328Z,93.585205
2018-12-21T21:16:30.362Z,93.890381
2018-12-21T21:22:02.496Z,92.456055
2018-12-21T21:27:30.304Z,91.943359
2018-12-21T21:32:48.890Z,91.52832
2018-12-21T21:38:20.801Z,91.73584
2018-12-21T21:43:44.058Z,92.498779
2018-12-21T21:49:07.007Z,91.778564
2018-12-21T21:54:39.195Z,91.162109
2018-12-21T22:00:02.065Z,89.929199
2018-12-21T22:05:24.728Z,89.929199
2018-12-21T22:10:48.069Z,89.929199
2018-12-21T22:16:12.610Z,89.868164
2018-12-21T22:21:35.624Z,91.51001
2018-12-21T22:26:58.416Z,90.075684
2018-12-21T22:32:21.127Z,91.760254
2018-12-21T22:37:54.633Z,91.864014
2018-12-21T22:43:17.410Z,95.092773
2018-12-21T22:48:40.175Z,98.223877
2018-12-21T22:54:02.950Z,99.993896
2018-12-21T22:59:38.070Z,99.993896
2018-12-21T23:05:19.330Z,99.993896
2018-12-21T23:11:00.002Z,99.993896
2018-12-21T23:16:34.177Z,99.993896
2018-12-21T23:21:56.906Z,99.993896
2018-12-21T23:27:19.517Z,99.993896
2018-12-21T23:32:42.319Z,99.993896
2018-12-21T23:38:05.047Z,99.993896
2018-12-21T23:43:27.834Z,99.993896
2018-12-21T23:48:50.688Z,99.993896
2018-12-21T23:54:13.641Z,99.993896
2018-12-21T23:59:36.447Z,99.993896
